sensor_id;sensor_type;location;lat;lon;timestamp;P1;durP1;ratioP1;P2;durP2;ratioP2
74473;SDS011;62922;-6.168;106.796;2023-06-22T00:33:30;36.40;;;28.27;;
74473;SDS011;62922;-6.168;106.796;2023-06-22T00:35:57;35.83;;;27.65;;
74473;SDS011;62922;-6.168;106.796;2023-06-22T00:38:23;41.53;;;31.85;;
74473;SDS011;62922;-6.168;106.796;2023-06-22T00:40:50;46.60;;;34.72;;
74473;SDS011;62922;-6.168;106.796;2023-06-22T00:43:16;47.35;;;34.15;;
74473;SDS011;62922;-6.168;106.796;2023-06-22T00:45:42;43.80;;;33.55;;
74473;SDS011;62922;-6.168;106.796;2023-06-22T00:48:09;46.33;;;34.03;;
74473;SDS011;62922;-6.168;106.796;2023-06-22T00:50:35;40.83;;;32.53;;
74473;SDS011;62922;-6.168;106.796;2023-06-22T00:53:09;44.47;;;32.70;;
74473;SDS011;62922;-6.168;106.796;2023-06-22T00:55:37;43.15;;;33.40;;
74473;SDS011;62922;-6.168;106.796;2023-06-22T00:58:09;46.03;;;33.35;;
74473;SDS011;62922;-6.168;106.796;2023-06-22T01:00:37;45.08;;;31.75;;
74473;SDS011;62922;-6.168;106.796;2023-06-22T01:03:04;44.00;;;32.42;;
74473;SDS011;62922;-6.168;106.796;2023-06-22T01:05:34;44.65;;;34.10;;
74473;SDS011;62922;-6.168;106.796;2023-06-22T01:10:35;43.63;;;33.03;;
74473;SDS011;62922;-6.168;106.796;2023-06-22T01:13:07;45.80;;;34.67;;
74473;SDS011;62922;-6.168;106.796;2023-06-22T01:15:43;44.20;;;34.45;;
74473;SDS011;62922;-6.168;106.796;2023-06-22T01:18:14;44.83;;;33.83;;
74473;SDS011;62922;-6.168;106.796;2023-06-22T01:20:44;45.47;;;34.13;;
74473;SDS011;62922;-6.168;106.796;2023-06-22T01:25:45;42.65;;;33.65;;
74473;SDS011;62922;-6.168;106.796;2023-06-22T01:31:02;40.97;;;32.75;;
74473;SDS011;62922;-6.168;106.796;2023-06-22T01:33:31;45.50;;;34.42;;
74473;SDS011;62922;-6.168;106.796;2023-06-22T01:36:01;45.80;;;33.70;;
74473;SDS011;62922;-6.168;106.796;2023-06-22T01:38:31;43.83;;;33.97;;
74473;SDS011;62922;-6.168;106.796;2023-06-22T01:41:01;45.85;;;34.88;;
74473;SDS011;62922;-6.168;106.796;2023-06-22T01:43:29;46.40;;;34.50;;
74473;SDS011;62922;-6.168;106.796;2023-06-22T01:45:56;46.28;;;34.00;;
74473;SDS011;62922;-6.168;106.796;2023-06-22T01:48:24;43.67;;;33.75;;
74473;SDS011;62922;-6.168;106.796;2023-06-22T01:50:51;46.10;;;34.83;;
74473;SDS011;62922;-6.168;106.796;2023-06-22T01:53:22;46.83;;;34.90;;
74473;SDS011;62922;-6.168;106.796;2023-06-22T01:55:49;50.05;;;34.33;;
74473;SDS011;62922;-6.168;106.796;2023-06-22T01:58:15;44.25;;;34.42;;
74473;SDS011;62922;-6.168;106.796;2023-06-22T02:00:44;43.15;;;34.70;;
74473;SDS011;62922;-6.168;106.796;2023-06-22T02:03:18;43.97;;;35.20;;
74473;SDS011;62922;-6.168;106.796;2023-06-22T02:05:50;46.33;;;35.85;;
74473;SDS011;62922;-6.168;106.796;2023-06-22T02:10:50;64.18;;;36.17;;
74473;SDS011;62922;-6.168;106.796;2023-06-22T02:13:18;51.22;;;36.92;;
74473;SDS011;62922;-6.168;106.796;2023-06-22T02:15:45;52.03;;;37.45;;
74473;SDS011;62922;-6.168;106.796;2023-06-22T02:18:12;50.72;;;36.75;;
74473;SDS011;62922;-6.168;106.796;2023-06-22T02:20:39;64.82;;;38.65;;
74473;SDS011;62922;-6.168;106.796;2023-06-22T02:23:06;47.38;;;34.85;;
74473;SDS011;62922;-6.168;106.796;2023-06-22T02:25:33;49.50;;;36.30;;
74473;SDS011;62922;-6.168;106.796;2023-06-22T02:28:01;47.17;;;36.53;;
74473;SDS011;62922;-6.168;106.796;2023-06-22T02:30:27;53.55;;;35.58;;
74473;SDS011;62922;-6.168;106.796;2023-06-22T02:32:54;45.97;;;34.83;;
74473;SDS011;62922;-6.168;106.796;2023-06-22T02:35:27;53.85;;;37.38;;
74473;SDS011;62922;-6.168;106.796;2023-06-22T02:37:58;46.67;;;36.33;;
74473;SDS011;62922;-6.168;106.796;2023-06-22T02:40:26;52.45;;;37.50;;
74473;SDS011;62922;-6.168;106.796;2023-06-22T02:42:55;50.08;;;36.90;;
74473;SDS011;62922;-6.168;106.796;2023-06-22T02:45:23;49.70;;;38.17;;
74473;SDS011;62922;-6.168;106.796;2023-06-22T02:47:50;49.83;;;38.05;;
74473;SDS011;62922;-6.168;106.796;2023-06-22T02:50:16;49.08;;;37.25;;
74473;SDS011;62922;-6.168;106.796;2023-06-22T02:52:42;58.17;;;38.75;;
74473;SDS011;62922;-6.168;106.796;2023-06-22T02:55:09;49.35;;;37.05;;
74473;SDS011;62922;-6.168;106.796;2023-06-22T02:57:35;46.30;;;36.20;;
74473;SDS011;62922;-6.168;106.796;2023-06-22T03:00:02;50.35;;;36.53;;
74473;SDS011;62922;-6.168;106.796;2023-06-22T03:02:41;49.40;;;37.95;;
74473;SDS011;62922;-6.168;106.796;2023-06-22T03:05:09;50.20;;;36.80;;
74473;SDS011;62922;-6.168;106.796;2023-06-22T03:07:39;46.88;;;36.83;;
74473;SDS011;62922;-6.168;106.796;2023-06-22T03:10:10;50.58;;;38.00;;
74473;SDS011;62922;-6.168;106.796;2023-06-22T03:12:38;46.60;;;35.53;;
74473;SDS011;62922;-6.168;106.796;2023-06-22T03:15:05;50.85;;;37.47;;
74473;SDS011;62922;-6.168;106.796;2023-06-22T03:17:33;45.65;;;35.75;;
74473;SDS011;62922;-6.168;106.796;2023-06-22T03:20:02;49.38;;;36.60;;
74473;SDS011;62922;-6.168;106.796;2023-06-22T03:22:37;48.00;;;36.67;;
74473;SDS011;62922;-6.168;106.796;2023-06-22T03:25:04;45.60;;;37.50;;
74473;SDS011;62922;-6.168;106.796;2023-06-22T03:27:36;49.60;;;36.28;;
74473;SDS011;62922;-6.168;106.796;2023-06-22T03:30:02;49.35;;;37.47;;
74473;SDS011;62922;-6.168;106.796;2023-06-22T03:32:29;49.20;;;36.13;;
74473;SDS011;62922;-6.168;106.796;2023-06-22T03:34:55;52.70;;;36.50;;
74473;SDS011;62922;-6.168;106.796;2023-06-22T03:37:25;51.95;;;36.40;;
74473;SDS011;62922;-6.168;106.796;2023-06-22T03:39:52;48.75;;;36.10;;
74473;SDS011;62922;-6.168;106.796;2023-06-22T03:42:18;43.30;;;34.38;;
74473;SDS011;62922;-6.168;106.796;2023-06-22T03:44:45;43.00;;;33.15;;
74473;SDS011;62922;-6.168;106.796;2023-06-22T03:47:13;44.80;;;33.90;;
74473;SDS011;62922;-6.168;106.796;2023-06-22T03:49:39;45.58;;;33.78;;
74473;SDS011;62922;-6.168;106.796;2023-06-22T03:52:06;45.00;;;32.90;;
74473;SDS011;62922;-6.168;106.796;2023-06-22T03:54:33;52.42;;;33.90;;
74473;SDS011;62922;-6.168;106.796;2023-06-22T03:56:59;43.92;;;33.08;;
74473;SDS011;62922;-6.168;106.796;2023-06-22T03:59:26;44.38;;;32.83;;
74473;SDS011;62922;-6.168;106.796;2023-06-22T04:01:52;44.05;;;32.63;;
74473;SDS011;62922;-6.168;106.796;2023-06-22T04:04:19;48.08;;;35.60;;
74473;SDS011;62922;-6.168;106.796;2023-06-22T04:06:46;51.58;;;36.50;;
74473;SDS011;62922;-6.168;106.796;2023-06-22T04:09:12;49.22;;;36.40;;
74473;SDS011;62922;-6.168;106.796;2023-06-22T04:11:39;51.60;;;35.67;;
74473;SDS011;62922;-6.168;106.796;2023-06-22T04:14:05;64.13;;;37.65;;
74473;SDS011;62922;-6.168;106.796;2023-06-22T04:16:31;46.20;;;35.65;;
74473;SDS011;62922;-6.168;106.796;2023-06-22T04:18:58;48.78;;;35.22;;
74473;SDS011;62922;-6.168;106.796;2023-06-22T09:00:59;49.28;;;24.73;;
74473;SDS011;62922;-6.168;106.796;2023-06-22T09:03:26;26.83;;;21.75;;
74473;SDS011;62922;-6.168;106.796;2023-06-22T09:05:52;27.88;;;21.63;;
74473;SDS011;62922;-6.168;106.796;2023-06-22T09:08:22;29.92;;;22.02;;
74473;SDS011;62922;-6.168;106.796;2023-06-22T09:10:48;30.98;;;22.63;;
74473;SDS011;62922;-6.168;106.796;2023-06-22T09:13:14;31.80;;;21.45;;
74473;SDS011;62922;-6.168;106.796;2023-06-22T09:15:40;27.42;;;21.38;;
74473;SDS011;62922;-6.168;106.796;2023-06-22T09:18:09;30.67;;;22.30;;
74473;SDS011;62922;-6.168;106.796;2023-06-22T09:20:37;29.45;;;22.40;;
74473;SDS011;62922;-6.168;106.796;2023-06-22T09:23:06;30.85;;;22.23;;
74473;SDS011;62922;-6.168;106.796;2023-06-22T09:25:32;28.27;;;21.63;;
74473;SDS011;62922;-6.168;106.796;2023-06-22T09:27:59;30.75;;;22.13;;
74473;SDS011;62922;-6.168;106.796;2023-06-22T09:30:25;30.48;;;21.52;;
74473;SDS011;62922;-6.168;106.796;2023-06-22T09:32:51;26.00;;;20.55;;
74473;SDS011;62922;-6.168;106.796;2023-06-22T09:35:17;25.77;;;20.15;;
74473;SDS011;62922;-6.168;106.796;2023-06-22T09:37:45;28.13;;;20.35;;
74473;SDS011;62922;-6.168;106.796;2023-06-22T09:40:11;24.33;;;19.42;;
74473;SDS011;62922;-6.168;106.796;2023-06-22T09:42:38;26.45;;;19.20;;
74473;SDS011;62922;-6.168;106.796;2023-06-22T09:45:05;24.52;;;19.65;;
74473;SDS011;62922;-6.168;106.796;2023-06-22T09:47:31;31.55;;;20.02;;
74473;SDS011;62922;-6.168;106.796;2023-06-22T09:49:58;24.83;;;19.80;;
74473;SDS011;62922;-6.168;106.796;2023-06-22T09:52:25;24.23;;;18.65;;
74473;SDS011;62922;-6.168;106.796;2023-06-22T09:54:54;24.80;;;20.00;;
74473;SDS011;62922;-6.168;106.796;2023-06-22T09:57:20;24.77;;;18.60;;
74473;SDS011;62922;-6.168;106.796;2023-06-22T09:59:46;26.20;;;19.90;;
74473;SDS011;62922;-6.168;106.796;2023-06-22T10:02:13;23.80;;;20.13;;
74473;SDS011;62922;-6.168;106.796;2023-06-22T10:04:42;23.58;;;18.33;;
74473;SDS011;62922;-6.168;106.796;2023-06-22T10:07:08;25.50;;;18.85;;
74473;SDS011;62922;-6.168;106.796;2023-06-22T10:09:40;24.95;;;18.90;;
74473;SDS011;62922;-6.168;106.796;2023-06-22T10:12:06;24.83;;;18.40;;
74473;SDS011;62922;-6.168;106.796;2023-06-22T10:14:33;23.73;;;19.10;;
74473;SDS011;62922;-6.168;106.796;2023-06-22T10:16:59;22.40;;;18.23;;
74473;SDS011;62922;-6.168;106.796;2023-06-22T10:19:26;23.90;;;18.25;;
74473;SDS011;62922;-6.168;106.796;2023-06-22T10:21:52;23.17;;;18.50;;
74473;SDS011;62922;-6.168;106.796;2023-06-22T10:24:19;21.77;;;17.58;;
74473;SDS011;62922;-6.168;106.796;2023-06-22T10:26:48;22.05;;;18.73;;
74473;SDS011;62922;-6.168;106.796;2023-06-22T10:29:14;23.10;;;18.38;;
74473;SDS011;62922;-6.168;106.796;2023-06-22T10:31:41;21.70;;;18.48;;
74473;SDS011;62922;-6.168;106.796;2023-06-22T10:34:07;20.52;;;17.90;;
74473;SDS011;62922;-6.168;106.796;2023-06-22T10:36:34;21.20;;;17.50;;
74473;SDS011;62922;-6.168;106.796;2023-06-22T10:39:00;22.48;;;17.17;;
74473;SDS011;62922;-6.168;106.796;2023-06-22T10:41:28;26.65;;;17.70;;
74473;SDS011;62922;-6.168;106.796;2023-06-22T10:43:56;22.35;;;17.88;;
74473;SDS011;62922;-6.168;106.796;2023-06-22T10:46:24;23.92;;;18.35;;
74473;SDS011;62922;-6.168;106.796;2023-06-22T10:48:53;23.35;;;17.55;;
74473;SDS011;62922;-6.168;106.796;2023-06-22T10:51:22;24.50;;;17.58;;
74473;SDS011;62922;-6.168;106.796;2023-06-22T10:53:48;23.92;;;18.45;;
74473;SDS011;62922;-6.168;106.796;2023-06-22T10:56:16;22.02;;;17.58;;
74473;SDS011;62922;-6.168;106.796;2023-06-22T10:58:44;23.65;;;17.52;;
74473;SDS011;62922;-6.168;106.796;2023-06-22T16:48:32;44.03;;;26.05;;
74473;SDS011;62922;-6.168;106.796;2023-06-22T16:51:01;40.10;;;24.90;;
74473;SDS011;62922;-6.168;106.796;2023-06-22T16:53:30;32.88;;;23.27;;
74473;SDS011;62922;-6.168;106.796;2023-06-22T16:56:02;30.42;;;21.85;;
74473;SDS011;62922;-6.168;106.796;2023-06-22T16:58:29;35.55;;;24.55;;
74473;SDS011;62922;-6.168;106.796;2023-06-22T17:00:56;35.08;;;24.50;;
74473;SDS011;62922;-6.168;106.796;2023-06-22T17:03:25;38.03;;;26.92;;
74473;SDS011;62922;-6.168;106.796;2023-06-22T17:05:54;39.30;;;27.17;;
74473;SDS011;62922;-6.168;106.796;2023-06-22T17:08:22;41.80;;;27.92;;
74473;SDS011;62922;-6.168;106.796;2023-06-22T17:10:50;43.65;;;28.08;;
74473;SDS011;62922;-6.168;106.796;2023-06-22T17:13:19;39.92;;;28.20;;
74473;SDS011;62922;-6.168;106.796;2023-06-22T17:15:46;42.85;;;28.67;;
74473;SDS011;62922;-6.168;106.796;2023-06-22T17:18:17;38.73;;;27.90;;
74473;SDS011;62922;-6.168;106.796;2023-06-22T17:20:45;41.17;;;29.05;;
74473;SDS011;62922;-6.168;106.796;2023-06-22T17:23:11;44.92;;;30.15;;
74473;SDS011;62922;-6.168;106.796;2023-06-22T17:25:37;40.35;;;29.23;;
74473;SDS011;62922;-6.168;106.796;2023-06-22T17:28:06;45.50;;;30.20;;
74473;SDS011;62922;-6.168;106.796;2023-06-22T17:30:33;46.85;;;31.90;;
74473;SDS011;62922;-6.168;106.796;2023-06-22T17:33:02;47.03;;;31.42;;
74473;SDS011;62922;-6.168;106.796;2023-06-22T17:35:30;45.03;;;31.98;;
74473;SDS011;62922;-6.168;106.796;2023-06-22T17:37:57;45.53;;;30.92;;
74473;SDS011;62922;-6.168;106.796;2023-06-22T17:40:31;42.45;;;31.63;;
74473;SDS011;62922;-6.168;106.796;2023-06-22T17:43:02;44.00;;;32.25;;
74473;SDS011;62922;-6.168;106.796;2023-06-22T17:45:31;44.92;;;32.30;;
74473;SDS011;62922;-6.168;106.796;2023-06-22T17:47:57;44.13;;;32.80;;
74473;SDS011;62922;-6.168;106.796;2023-06-22T17:50:24;47.13;;;32.38;;
74473;SDS011;62922;-6.168;106.796;2023-06-22T17:52:51;48.78;;;32.25;;
74473;SDS011;62922;-6.168;106.796;2023-06-22T17:55:21;42.85;;;31.45;;
74473;SDS011;62922;-6.168;106.796;2023-06-22T17:57:51;42.90;;;33.17;;
74473;SDS011;62922;-6.168;106.796;2023-06-22T18:00:22;46.28;;;33.30;;
74473;SDS011;62922;-6.168;106.796;2023-06-22T18:02:49;46.17;;;33.03;;
74473;SDS011;62922;-6.168;106.796;2023-06-22T18:05:16;44.47;;;31.63;;
74473;SDS011;62922;-6.168;106.796;2023-06-22T18:07:42;47.30;;;33.03;;
74473;SDS011;62922;-6.168;106.796;2023-06-22T18:10:09;47.42;;;32.65;;
74473;SDS011;62922;-6.168;106.796;2023-06-22T18:12:38;50.08;;;33.35;;
74473;SDS011;62922;-6.168;106.796;2023-06-22T18:15:06;47.30;;;31.65;;
74473;SDS011;62922;-6.168;106.796;2023-06-22T18:17:33;49.78;;;33.17;;
74473;SDS011;62922;-6.168;106.796;2023-06-22T18:20:00;45.80;;;33.13;;
74473;SDS011;62922;-6.168;106.796;2023-06-22T18:22:28;45.67;;;31.98;;
74473;SDS011;62922;-6.168;106.796;2023-06-22T18:24:57;49.00;;;34.47;;
74473;SDS011;62922;-6.168;106.796;2023-06-22T18:27:28;46.88;;;34.13;;
74473;SDS011;62922;-6.168;106.796;2023-06-22T18:29:55;45.20;;;32.17;;
74473;SDS011;62922;-6.168;106.796;2023-06-22T18:32:24;42.03;;;32.42;;
74473;SDS011;62922;-6.168;106.796;2023-06-22T18:34:50;46.42;;;32.17;;
74473;SDS011;62922;-6.168;106.796;2023-06-22T18:37:17;50.67;;;34.03;;
74473;SDS011;62922;-6.168;106.796;2023-06-22T18:39:45;48.05;;;33.80;;
74473;SDS011;62922;-6.168;106.796;2023-06-22T18:42:17;47.97;;;33.88;;
74473;SDS011;62922;-6.168;106.796;2023-06-22T18:44:44;44.97;;;33.58;;
74473;SDS011;62922;-6.168;106.796;2023-06-22T18:47:25;44.97;;;32.95;;
74473;SDS011;62922;-6.168;106.796;2023-06-22T18:50:04;52.40;;;34.17;;
74473;SDS011;62922;-6.168;106.796;2023-06-22T18:52:32;45.00;;;32.58;;
74473;SDS011;62922;-6.168;106.796;2023-06-22T18:55:02;40.97;;;32.20;;
74473;SDS011;62922;-6.168;106.796;2023-06-22T18:57:29;47.08;;;32.45;;
74473;SDS011;62922;-6.168;106.796;2023-06-22T18:59:59;44.05;;;32.47;;
74473;SDS011;62922;-6.168;106.796;2023-06-22T19:12:54;42.67;;;31.77;;
74473;SDS011;62922;-6.168;106.796;2023-06-22T19:15:43;42.90;;;30.85;;
74473;SDS011;62922;-6.168;106.796;2023-06-22T19:18:21;43.47;;;31.98;;
74473;SDS011;62922;-6.168;106.796;2023-06-22T19:26:00;44.05;;;30.63;;
74473;SDS011;62922;-6.168;106.796;2023-06-22T19:28:28;42.63;;;31.77;;
74473;SDS011;62922;-6.168;106.796;2023-06-22T19:30:56;40.28;;;31.25;;
74473;SDS011;62922;-6.168;106.796;2023-06-22T19:33:24;41.95;;;31.58;;
74473;SDS011;62922;-6.168;106.796;2023-06-22T19:35:54;38.08;;;30.05;;
74473;SDS011;62922;-6.168;106.796;2023-06-22T19:38:23;39.17;;;30.45;;
74473;SDS011;62922;-6.168;106.796;2023-06-22T19:40:52;38.80;;;30.20;;
74473;SDS011;62922;-6.168;106.796;2023-06-22T19:43:19;38.03;;;29.98;;
74473;SDS011;62922;-6.168;106.796;2023-06-22T19:45:45;38.70;;;30.00;;
74473;SDS011;62922;-6.168;106.796;2023-06-22T19:48:12;39.58;;;29.30;;
74473;SDS011;62922;-6.168;106.796;2023-06-22T19:50:40;39.75;;;30.25;;
74473;SDS011;62922;-6.168;106.796;2023-06-22T19:53:10;37.67;;;29.95;;
74473;SDS011;62922;-6.168;106.796;2023-06-22T19:55:40;37.03;;;29.60;;
74473;SDS011;62922;-6.168;106.796;2023-06-22T19:58:10;37.22;;;28.88;;
74473;SDS011;62922;-6.168;106.796;2023-06-22T20:00:41;39.00;;;29.05;;
74473;SDS011;62922;-6.168;106.796;2023-06-22T20:03:15;37.80;;;28.83;;
74473;SDS011;62922;-6.168;106.796;2023-06-22T20:05:42;35.75;;;28.48;;
74473;SDS011;62922;-6.168;106.796;2023-06-22T20:08:10;35.40;;;29.00;;
74473;SDS011;62922;-6.168;106.796;2023-06-22T20:10:38;34.85;;;28.50;;
74473;SDS011;62922;-6.168;106.796;2023-06-22T20:15:54;38.72;;;29.50;;
74473;SDS011;62922;-6.168;106.796;2023-06-22T20:18:22;33.60;;;27.92;;
74473;SDS011;62922;-6.168;106.796;2023-06-22T20:20:48;37.13;;;29.17;;
74473;SDS011;62922;-6.168;106.796;2023-06-22T20:23:17;36.33;;;28.15;;
74473;SDS011;62922;-6.168;106.796;2023-06-22T20:28:16;34.38;;;27.55;;
74473;SDS011;62922;-6.168;106.796;2023-06-22T20:33:37;35.88;;;28.58;;
74473;SDS011;62922;-6.168;106.796;2023-06-22T20:36:05;36.35;;;27.90;;
74473;SDS011;62922;-6.168;106.796;2023-06-22T20:38:33;33.28;;;27.15;;
74473;SDS011;62922;-6.168;106.796;2023-06-22T20:41:01;35.95;;;28.20;;
74473;SDS011;62922;-6.168;106.796;2023-06-22T20:43:33;36.72;;;28.13;;
74473;SDS011;62922;-6.168;106.796;2023-06-22T20:46:00;38.20;;;29.38;;
74473;SDS011;62922;-6.168;106.796;2023-06-22T20:48:26;33.67;;;27.85;;
74473;SDS011;62922;-6.168;106.796;2023-06-22T20:50:52;35.72;;;28.95;;
74473;SDS011;62922;-6.168;106.796;2023-06-22T20:53:22;38.40;;;29.52;;
74473;SDS011;62922;-6.168;106.796;2023-06-22T20:55:49;37.78;;;28.20;;
